OOMS

Muscat International Airport

Muscat, Oman
TAF OOMS 182300Z 1900/2006 28008KT 8000 NSC PROB30 TEMPO 1900/1907 BKN020 BECMG 1906/1908 34013KT PROB30 TEMPO 1915/1922 BKN040 BECMG 1917/1919 26007KT
Issued Valid From Valid To
Jan-18 @ 23:00 UTC
(3 hours ago)
Jan-19 @ 00:00 UTC
(2 hours ago)
Jan-20 @ 06:00 UTC
(-1 days ago)
Jan-19 @ 00:00 to Jan-19 @ 06:00
TAF OOMS 182300Z 1900/2006 28008KT 8000 NSC
Wind Visibility Clouds
280° at 8 knots 7,998 meters
  • No significant clouds
Temporary  (Probability 30%) Jan-19 @ 00:00 to Jan-19 @ 07:00
PROB30 TEMPO 1900/1907 BKN020
Clouds
  • Broken at 2,000' AGL
Becoming Jan-19 @ 06:00 to Jan-19 @ 17:00
BECMG 1906/1908 34013KT
Wind Visibility Clouds
340° at 13 knots 7,998 meters
  • No significant clouds
Temporary  (Probability 30%) Jan-19 @ 15:00 to Jan-19 @ 22:00
PROB30 TEMPO 1915/1922 BKN040
Clouds
  • Broken at 4,000' AGL
Becoming Jan-19 @ 17:00 to Jan-20 @ 06:00
BECMG 1917/1919 26007KT
Wind Visibility Clouds
260° at 7 knots 7,998 meters
  • No significant clouds
TAF OOMS 182300Z 1900/2006 28008KT 8000 NSC PROB30 TEMPO 1900/1907 BKN020 BECMG 1906/1908 34013KT PROB30 TEMPO 1915/1922 BKN040 BECMG 1917/1919 26007KT
Issued Jan-18 @ 23:00 UTC
(3 hours ago)
Valid From Jan-19 @ 00:00 UTC
(2 hours ago)
Valid To Jan-20 @ 06:00 UTC
(-1 days ago)
Jan-19 @ 00:00 - Jan-19 @ 06:00
Wind Visibility
280° at 8 knots 7,998 meters
Clouds
  • No significant clouds
Probability 30% Temporary Jan-19 @ 00:00 - Jan-19 @ 07:00
Clouds
  • Broken at 2,000' AGL
Becoming Jan-19 @ 06:00 - Jan-19 @ 17:00
Wind Visibility
340° at 13 knots 7,998 meters
Clouds
  • No significant clouds
Probability 30% Temporary Jan-19 @ 15:00 - Jan-19 @ 22:00
Clouds
  • Broken at 4,000' AGL
Becoming Jan-19 @ 17:00 - Jan-20 @ 06:00
Wind Visibility
260° at 7 knots 7,998 meters
Clouds
  • No significant clouds